sensor_id;sensor_type;location;lat;lon;timestamp;pressure;altitude;pressure_sealevel;temperature;humidity
35121;BME280;21297;52.008;4.576;2023-05-21T00:00:05;49217.28;;;-143.47;90.79
35121;BME280;21297;52.008;4.576;2023-05-21T00:02:55;49219.22;;;-143.47;94.20
35121;BME280;21297;52.008;4.576;2023-05-21T00:05:42;49203.50;;;-143.47;96.91
35121;BME280;21297;52.008;4.576;2023-05-21T00:08:31;49229.06;;;-143.47;99.69
35121;BME280;21297;52.008;4.576;2023-05-21T00:11:18;49207.44;;;-143.47;100.00
35121;BME280;21297;52.008;4.576;2023-05-21T00:14:04;49233.00;;;-143.47;100.00
35121;BME280;21297;52.008;4.576;2023-05-21T00:16:50;49234.97;;;-143.47;100.00
35121;BME280;21297;52.008;4.576;2023-05-21T00:19:35;49248.72;;;-143.47;100.00
35121;BME280;21297;52.008;4.576;2023-05-21T00:22:21;49315.59;;;-143.47;100.00
35121;BME280;21297;52.008;4.576;2023-05-21T00:25:08;49307.72;;;-143.47;100.00
35121;BME280;21297;52.008;4.576;2023-05-21T00:27:54;49295.94;;;-143.47;100.00
35121;BME280;21297;52.008;4.576;2023-05-21T00:30:40;49352.97;;;-143.47;99.16
35121;BME280;21297;52.008;4.576;2023-05-21T00:33:27;49406.06;;;-143.47;96.15
35121;BME280;21297;52.008;4.576;2023-05-21T00:36:13;49386.41;;;-143.47;95.74
35121;BME280;21297;52.008;4.576;2023-05-21T00:38:59;49382.47;;;-143.47;94.25
35121;BME280;21297;52.008;4.576;2023-05-21T00:41:46;49388.38;;;-143.47;94.25
35121;BME280;21297;52.008;4.576;2023-05-21T00:44:33;49386.41;;;-143.47;94.51
35121;BME280;21297;52.008;4.576;2023-05-21T00:47:19;49425.72;;;-143.47;93.51
35121;BME280;21297;52.008;4.576;2023-05-21T00:50:06;49415.91;;;-143.47;92.47
35121;BME280;21297;52.008;4.576;2023-05-21T00:52:52;49441.47;;;-143.47;92.97
35121;BME280;21297;52.008;4.576;2023-05-21T00:55:39;49413.94;;;-143.47;94.55
35121;BME280;21297;52.008;4.576;2023-05-21T00:58:26;49419.81;;;-143.47;95.11
35121;BME280;21297;52.008;4.576;2023-05-21T01:01:11;49451.28;;;-143.47;94.63
35121;BME280;21297;52.008;4.576;2023-05-21T01:03:59;49423.75;;;-143.47;94.60
35121;BME280;21297;52.008;4.576;2023-05-21T01:06:46;49429.66;;;-143.47;94.74
35121;BME280;21297;52.008;4.576;2023-05-21T01:09:31;49325.44;;;-143.47;100.00
35121;BME280;21297;52.008;4.576;2023-05-21T01:12:17;49301.84;;;-143.47;100.00
35121;BME280;21297;52.008;4.576;2023-05-21T01:15:05;49313.63;;;-143.47;100.00
35121;BME280;21297;52.008;4.576;2023-05-21T01:17:51;49270.38;;;-143.47;100.00
35121;BME280;21297;52.008;4.576;2023-05-21T01:20:37;49307.72;;;-143.47;100.00
35121;BME280;21297;52.008;4.576;2023-05-21T01:23:23;49284.13;;;-143.47;100.00
35121;BME280;21297;52.008;4.576;2023-05-21T01:26:09;49305.75;;;-143.47;100.00
35121;BME280;21297;52.008;4.576;2023-05-21T01:28:57;49282.16;;;-143.47;100.00
35121;BME280;21297;52.008;4.576;2023-05-21T01:35:08;49282.16;;;-143.47;100.00
35121;BME280;21297;52.008;4.576;2023-05-21T01:38:07;49256.59;;;-143.47;100.00
35121;BME280;21297;52.008;4.576;2023-05-21T01:40:57;49254.63;;;-143.47;100.00
35121;BME280;21297;52.008;4.576;2023-05-21T01:43:45;49256.59;;;-143.47;100.00
35121;BME280;21297;52.008;4.576;2023-05-21T01:46:33;49266.44;;;-143.47;100.00
35121;BME280;21297;52.008;4.576;2023-05-21T01:49:20;49309.69;;;-143.47;100.00
35121;BME280;21297;52.008;4.576;2023-05-21T01:52:07;49319.53;;;-143.47;100.00
35121;BME280;21297;52.008;4.576;2023-05-21T01:54:56;49303.78;;;-143.47;100.00
35121;BME280;21297;52.008;4.576;2023-05-21T01:57:41;49331.31;;;-143.47;100.00
35121;BME280;21297;52.008;4.576;2023-05-21T02:00:27;49315.59;;;-143.47;100.00
35121;BME280;21297;52.008;4.576;2023-05-21T02:03:13;49315.59;;;-143.47;100.00
35121;BME280;21297;52.008;4.576;2023-05-21T02:05:59;49299.88;;;-143.47;100.00
35121;BME280;21297;52.008;4.576;2023-05-21T02:08:45;49331.31;;;-143.47;100.00
35121;BME280;21297;52.008;4.576;2023-05-21T02:11:30;49335.25;;;-143.47;100.00
35121;BME280;21297;52.008;4.576;2023-05-21T02:14:16;49301.84;;;-143.47;100.00
35121;BME280;21297;52.008;4.576;2023-05-21T02:17:02;49378.53;;;-143.47;100.00
35121;BME280;21297;52.008;4.576;2023-05-21T02:19:47;49343.13;;;-143.47;100.00
35121;BME280;21297;52.008;4.576;2023-05-21T02:22:33;49347.06;;;-143.47;100.00
35121;BME280;21297;52.008;4.576;2023-05-21T02:25:18;49360.81;;;-143.47;100.00
35121;BME280;21297;52.008;4.576;2023-05-21T02:28:04;49362.78;;;-143.47;100.00
35121;BME280;21297;52.008;4.576;2023-05-21T02:30:51;49394.25;;;-143.47;100.00
35121;BME280;21297;52.008;4.576;2023-05-21T02:33:39;49370.66;;;-143.47;100.00
35121;BME280;21297;52.008;4.576;2023-05-21T02:36:24;49406.06;;;-143.47;100.00
35121;BME280;21297;52.008;4.576;2023-05-21T02:39:10;49376.56;;;-143.47;100.00
35121;BME280;21297;52.008;4.576;2023-05-21T02:41:56;49396.22;;;-143.47;100.00
35121;BME280;21297;52.008;4.576;2023-05-21T02:44:42;49425.72;;;-143.47;100.00
35121;BME280;21297;52.008;4.576;2023-05-21T02:47:27;49362.78;;;-143.47;100.00
35121;BME280;21297;52.008;4.576;2023-05-21T02:50:13;49352.97;;;-143.47;100.00
35121;BME280;21297;52.008;4.576;2023-05-21T02:52:59;49390.31;;;-143.47;100.00
35121;BME280;21297;52.008;4.576;2023-05-21T02:55:45;49404.09;;;-143.47;100.00
35121;BME280;21297;52.008;4.576;2023-05-21T02:58:30;49478.81;;;-143.47;100.00
35121;BME280;21297;52.008;4.576;2023-05-21T03:01:16;49435.56;;;-143.47;100.00
35121;BME280;21297;52.008;4.576;2023-05-21T03:04:02;49453.25;;;-143.47;100.00
35121;BME280;21297;52.008;4.576;2023-05-21T03:06:48;49478.81;;;-143.47;100.00
35121;BME280;21297;52.008;4.576;2023-05-21T03:09:36;49457.19;;;-143.47;100.00
35121;BME280;21297;52.008;4.576;2023-05-21T03:12:21;49445.41;;;-143.47;100.00
35121;BME280;21297;52.008;4.576;2023-05-21T03:15:07;49480.78;;;-143.47;100.00
35121;BME280;21297;52.008;4.576;2023-05-21T03:17:53;49465.06;;;-143.47;100.00
35121;BME280;21297;52.008;4.576;2023-05-21T03:20:39;49486.69;;;-143.47;100.00
35121;BME280;21297;52.008;4.576;2023-05-21T03:23:31;49526.03;;;-143.47;100.00
35121;BME280;21297;52.008;4.576;2023-05-21T03:26:16;49508.31;;;-143.47;100.00
35121;BME280;21297;52.008;4.576;2023-05-21T03:29:02;49500.47;;;-143.47;100.00
35121;BME280;21297;52.008;4.576;2023-05-21T03:31:48;49486.69;;;-143.47;100.00
35121;BME280;21297;52.008;4.576;2023-05-21T03:34:33;49528.00;;;-143.47;100.00
35121;BME280;21297;52.008;4.576;2023-05-21T03:37:19;49508.31;;;-143.47;100.00
35121;BME280;21297;52.008;4.576;2023-05-21T03:40:06;49506.38;;;-143.47;100.00
35121;BME280;21297;52.008;4.576;2023-05-21T03:42:52;49535.88;;;-143.47;100.00
35121;BME280;21297;52.008;4.576;2023-05-21T03:45:37;49526.03;;;-143.47;100.00
35121;BME280;21297;52.008;4.576;2023-05-21T03:48:23;49520.13;;;-143.47;100.00
35121;BME280;21297;52.008;4.576;2023-05-21T03:51:09;49551.59;;;-143.47;100.00
35121;BME280;21297;52.008;4.576;2023-05-21T03:53:56;49539.78;;;-143.47;100.00
35121;BME280;21297;52.008;4.576;2023-05-21T03:56:42;49510.28;;;-143.47;100.00
35121;BME280;21297;52.008;4.576;2023-05-21T03:59:27;49478.81;;;-143.47;100.00
35121;BME280;21297;52.008;4.576;2023-05-21T04:02:13;49571.25;;;-143.47;100.00
35121;BME280;21297;52.008;4.576;2023-05-21T04:04:59;49559.47;;;-143.47;100.00
35121;BME280;21297;52.008;4.576;2023-05-21T04:07:44;49622.41;;;-143.47;100.00
35121;BME280;21297;52.008;4.576;2023-05-21T04:10:30;49600.75;;;-143.47;100.00
35121;BME280;21297;52.008;4.576;2023-05-21T04:13:16;49528.00;;;-143.47;100.00
35121;BME280;21297;52.008;4.576;2023-05-21T04:16:02;49567.34;;;-143.47;100.00
35121;BME280;21297;52.008;4.576;2023-05-21T04:18:47;49549.63;;;-143.47;100.00
35121;BME280;21297;52.008;4.576;2023-05-21T04:21:33;49571.25;;;-143.47;100.00
35121;BME280;21297;52.008;4.576;2023-05-21T04:24:19;49569.28;;;-143.47;100.00
35121;BME280;21297;52.008;4.576;2023-05-21T04:27:05;49502.44;;;-143.47;100.00
35121;BME280;21297;52.008;4.576;2023-05-21T04:29:51;49533.91;;;-143.47;100.00
35121;BME280;21297;52.008;4.576;2023-05-21T04:32:39;49545.69;;;-143.47;100.00
35121;BME280;21297;52.008;4.576;2023-05-21T04:35:24;49561.44;;;-143.47;100.00
35121;BME280;21297;52.008;4.576;2023-05-21T04:38:10;49551.59;;;-143.47;100.00
35121;BME280;21297;52.008;4.576;2023-05-21T04:40:56;49518.16;;;-143.47;100.00
35121;BME280;21297;52.008;4.576;2023-05-21T04:43:43;49579.13;;;-143.47;100.00
35121;BME280;21297;52.008;4.576;2023-05-21T04:46:29;49549.63;;;-143.47;100.00
35121;BME280;21297;52.008;4.576;2023-05-21T04:49:15;49531.94;;;-143.47;100.00
35121;BME280;21297;52.008;4.576;2023-05-21T04:52:01;49543.72;;;-143.47;100.00
35121;BME280;21297;52.008;4.576;2023-05-21T04:54:46;49594.88;;;-143.47;100.00
35121;BME280;21297;52.008;4.576;2023-05-21T04:57:32;49553.56;;;-143.47;100.00
35121;BME280;21297;52.008;4.576;2023-05-21T05:00:18;49528.00;;;-143.47;100.00
35121;BME280;21297;52.008;4.576;2023-05-21T05:03:04;49585.03;;;-143.47;100.00
35121;BME280;21297;52.008;4.576;2023-05-21T05:05:50;49632.22;;;-143.47;100.00
35121;BME280;21297;52.008;4.576;2023-05-21T05:08:36;49606.66;;;-143.47;100.00
35121;BME280;21297;52.008;4.576;2023-05-21T05:11:21;49612.56;;;-143.47;100.00
35121;BME280;21297;52.008;4.576;2023-05-21T05:14:07;49561.44;;;-143.47;100.00
35121;BME280;21297;52.008;4.576;2023-05-21T05:16:53;49610.59;;;-143.47;100.00
35121;BME280;21297;52.008;4.576;2023-05-21T05:19:38;49636.16;;;-143.47;100.00
35121;BME280;21297;52.008;4.576;2023-05-21T05:22:24;49587.00;;;-143.47;100.00
35121;BME280;21297;52.008;4.576;2023-05-21T05:25:10;49646.00;;;-143.47;97.89
35121;BME280;21297;52.008;4.576;2023-05-21T05:27:56;49653.88;;;-143.47;99.03
35121;BME280;21297;52.008;4.576;2023-05-21T05:30:41;49634.19;;;-143.47;99.65
35121;BME280;21297;52.008;4.576;2023-05-21T05:33:27;49657.81;;;-143.47;98.25
35121;BME280;21297;52.008;4.576;2023-05-21T05:36:13;49612.56;;;-143.47;100.00
35121;BME280;21297;52.008;4.576;2023-05-21T05:38:58;49665.66;;;-143.47;100.00
35121;BME280;21297;52.008;4.576;2023-05-21T05:41:44;49661.72;;;-143.47;98.99
35121;BME280;21297;52.008;4.576;2023-05-21T05:44:30;49689.28;;;-143.47;98.92
35121;BME280;21297;52.008;4.576;2023-05-21T05:47:15;49722.72;;;-143.47;96.22
35121;BME280;21297;52.008;4.576;2023-05-21T05:50:01;49762.03;;;-143.47;94.71
35121;BME280;21297;52.008;4.576;2023-05-21T05:52:47;49712.88;;;-143.47;95.81
35121;BME280;21297;52.008;4.576;2023-05-21T05:55:32;49712.88;;;-143.47;95.87
35121;BME280;21297;52.008;4.576;2023-05-21T05:58:18;49765.97;;;-143.47;94.14
35121;BME280;21297;52.008;4.576;2023-05-21T06:01:04;49807.28;;;-143.47;92.64
35121;BME280;21297;52.008;4.576;2023-05-21T06:03:49;49765.97;;;-143.47;93.80
35121;BME280;21297;52.008;4.576;2023-05-21T06:06:35;49872.19;;;-143.47;90.39
35121;BME280;21297;52.008;4.576;2023-05-21T06:09:21;49838.75;;;-143.47;88.90
35121;BME280;21297;52.008;4.576;2023-05-21T06:12:06;49811.22;;;-143.47;89.68
35121;BME280;21297;52.008;4.576;2023-05-21T06:14:52;49848.59;;;-143.47;88.31
35121;BME280;21297;52.008;4.576;2023-05-21T06:17:38;49813.19;;;-143.47;89.26
35121;BME280;21297;52.008;4.576;2023-05-21T06:20:23;49809.25;;;-143.47;87.19
35121;BME280;21297;52.008;4.576;2023-05-21T06:23:09;49850.56;;;-143.47;86.96
35121;BME280;21297;52.008;4.576;2023-05-21T06:25:54;49846.63;;;-143.47;86.03
35121;BME280;21297;52.008;4.576;2023-05-21T06:28:40;49836.78;;;-143.47;87.29
35121;BME280;21297;52.008;4.576;2023-05-21T06:31:26;49819.09;;;-143.47;87.20
35121;BME280;21297;52.008;4.576;2023-05-21T06:34:12;49791.53;;;-143.47;88.07
35121;BME280;21297;52.008;4.576;2023-05-21T06:36:57;49740.41;;;-143.47;88.67
35121;BME280;21297;52.008;4.576;2023-05-21T06:39:43;49791.53;;;-143.47;86.87
35121;BME280;21297;52.008;4.576;2023-05-21T06:42:29;49852.53;;;-143.47;86.23
35121;BME280;21297;52.008;4.576;2023-05-21T06:45:15;49866.28;;;-143.47;86.15
35121;BME280;21297;52.008;4.576;2023-05-21T06:48:00;49819.09;;;-143.47;85.61
35121;BME280;21297;52.008;4.576;2023-05-21T06:50:46;49799.41;;;-143.47;85.44
35121;BME280;21297;52.008;4.576;2023-05-21T06:53:32;49878.09;;;-143.47;85.29
35121;BME280;21297;52.008;4.576;2023-05-21T06:56:18;49895.78;;;-143.47;83.89
35121;BME280;21297;52.008;4.576;2023-05-21T06:59:03;49872.19;;;-143.47;84.00
35121;BME280;21297;52.008;4.576;2023-05-21T07:01:49;49887.91;;;-143.47;84.19
35121;BME280;21297;52.008;4.576;2023-05-21T07:04:34;49895.78;;;-143.47;83.97
35121;BME280;21297;52.008;4.576;2023-05-21T07:07:20;49884.00;;;-143.47;82.83
35121;BME280;21297;52.008;4.576;2023-05-21T07:10:06;49856.44;;;-143.47;83.31
35121;BME280;21297;52.008;4.576;2023-05-21T07:12:52;49874.16;;;-143.47;83.96
35121;BME280;21297;52.008;4.576;2023-05-21T07:15:38;49917.44;;;-143.47;84.18
35121;BME280;21297;52.008;4.576;2023-05-21T07:18:24;49846.63;;;-143.47;84.96
35121;BME280;21297;52.008;4.576;2023-05-21T07:21:09;49887.91;;;-143.47;84.04
35121;BME280;21297;52.008;4.576;2023-05-21T07:23:55;49887.91;;;-143.47;83.64
35121;BME280;21297;52.008;4.576;2023-05-21T07:26:41;49882.03;;;-143.47;84.50
35121;BME280;21297;52.008;4.576;2023-05-21T07:29:26;49897.75;;;-143.47;84.64
35121;BME280;21297;52.008;4.576;2023-05-21T07:32:12;49950.88;;;-143.47;84.14
35121;BME280;21297;52.008;4.576;2023-05-21T07:34:59;49866.28;;;-143.47;85.10
35121;BME280;21297;52.008;4.576;2023-05-21T07:37:46;49919.38;;;-143.47;85.40
35121;BME280;21297;52.008;4.576;2023-05-21T07:40:32;49929.22;;;-143.47;84.27
35121;BME280;21297;52.008;4.576;2023-05-21T07:43:18;49889.88;;;-143.47;83.91
35121;BME280;21297;52.008;4.576;2023-05-21T07:46:03;49921.34;;;-143.47;83.61
35121;BME280;21297;52.008;4.576;2023-05-21T07:48:49;49964.63;;;-143.47;81.62
35121;BME280;21297;52.008;4.576;2023-05-21T07:51:35;49870.22;;;-143.47;82.12
35121;BME280;21297;52.008;4.576;2023-05-21T07:54:20;49964.63;;;-143.47;81.85
35121;BME280;21297;52.008;4.576;2023-05-21T07:57:06;49966.59;;;-143.47;80.61
35121;BME280;21297;52.008;4.576;2023-05-21T07:59:52;50033.47;;;-143.47;80.30
35121;BME280;21297;52.008;4.576;2023-05-21T08:02:37;49972.50;;;-143.47;80.00
35121;BME280;21297;52.008;4.576;2023-05-21T08:05:23;49960.69;;;-143.47;79.84
35121;BME280;21297;52.008;4.576;2023-05-21T08:08:10;50033.47;;;-143.47;79.23
35121;BME280;21297;52.008;4.576;2023-05-21T08:10:57;50002.00;;;-143.47;78.00
35121;BME280;21297;52.008;4.576;2023-05-21T08:13:43;50007.91;;;-143.47;77.24
35121;BME280;21297;52.008;4.576;2023-05-21T08:16:28;50021.66;;;-143.47;76.89
35121;BME280;21297;52.008;4.576;2023-05-21T08:19:14;50108.22;;;-143.47;75.83
35121;BME280;21297;52.008;4.576;2023-05-21T08:22:00;50061.00;;;-143.47;76.62
35121;BME280;21297;52.008;4.576;2023-05-21T08:24:46;50108.22;;;-143.47;74.21
35121;BME280;21297;52.008;4.576;2023-05-21T08:27:32;50114.13;;;-143.47;74.50
35121;BME280;21297;52.008;4.576;2023-05-21T08:30:18;50066.91;;;-143.47;72.81
35121;BME280;21297;52.008;4.576;2023-05-21T08:33:04;50051.19;;;-143.47;73.68
35121;BME280;21297;52.008;4.576;2023-05-21T08:35:49;50078.72;;;-143.47;73.21
35121;BME280;21297;52.008;4.576;2023-05-21T08:38:35;50084.63;;;-143.47;72.71
35121;BME280;21297;52.008;4.576;2023-05-21T08:41:20;50082.66;;;-143.47;71.42
35121;BME280;21297;52.008;4.576;2023-05-21T08:44:10;50120.03;;;-143.47;71.27
35121;BME280;21297;52.008;4.576;2023-05-21T08:46:57;50208.53;;;-143.47;70.63
35121;BME280;21297;52.008;4.576;2023-05-21T08:49:43;50236.06;;;-143.47;68.68
35121;BME280;21297;52.008;4.576;2023-05-21T08:52:30;50212.47;;;-143.47;67.46
35121;BME280;21297;52.008;4.576;2023-05-21T08:55:16;50232.16;;;-143.47;66.94
35121;BME280;21297;52.008;4.576;2023-05-21T08:58:03;50161.31;;;-143.47;66.66
35121;BME280;21297;52.008;4.576;2023-05-21T09:00:48;50234.09;;;-143.47;67.32
35121;BME280;21297;52.008;4.576;2023-05-21T09:03:36;50194.78;;;-143.47;66.78
35121;BME280;21297;52.008;4.576;2023-05-21T09:06:24;50240.00;;;-143.47;67.20
35121;BME280;21297;52.008;4.576;2023-05-21T09:09:18;50257.72;;;-143.47;66.24
35121;BME280;21297;52.008;4.576;2023-05-21T09:12:08;50249.84;;;-143.47;66.18
35121;BME280;21297;52.008;4.576;2023-05-21T09:14:54;50285.25;;;-143.47;65.08
35121;BME280;21297;52.008;4.576;2023-05-21T09:17:45;50265.59;;;-143.47;65.09
35121;BME280;21297;52.008;4.576;2023-05-21T09:20:32;50200.66;;;-143.47;65.19
35121;BME280;21297;52.008;4.576;2023-05-21T09:23:19;50226.25;;;-143.47;65.08
35121;BME280;21297;52.008;4.576;2023-05-21T09:26:09;50206.56;;;-143.47;64.74
35121;BME280;21297;52.008;4.576;2023-05-21T09:28:58;50285.25;;;-143.47;63.82
35121;BME280;21297;52.008;4.576;2023-05-21T09:31:44;50295.09;;;-143.47;64.41
35121;BME280;21297;52.008;4.576;2023-05-21T09:34:29;50285.25;;;-143.47;63.74
35121;BME280;21297;52.008;4.576;2023-05-21T09:37:15;50310.81;;;-143.47;63.15
35121;BME280;21297;52.008;4.576;2023-05-21T09:40:01;50291.16;;;-143.47;62.67
35121;BME280;21297;52.008;4.576;2023-05-21T09:42:47;50306.88;;;-143.47;61.92
35121;BME280;21297;52.008;4.576;2023-05-21T09:45:33;50312.78;;;-143.47;62.06
35121;BME280;21297;52.008;4.576;2023-05-21T09:48:32;50334.44;;;-143.47;62.08
35121;BME280;21297;52.008;4.576;2023-05-21T09:51:19;50361.97;;;-143.47;61.84
35121;BME280;21297;52.008;4.576;2023-05-21T09:54:05;50369.84;;;-143.47;62.06
35121;BME280;21297;52.008;4.576;2023-05-21T09:56:51;50407.22;;;-143.47;61.08
35121;BME280;21297;52.008;4.576;2023-05-21T09:59:38;50373.78;;;-143.47;60.83
35121;BME280;21297;52.008;4.576;2023-05-21T10:02:24;50442.63;;;-143.47;61.18
35121;BME280;21297;52.008;4.576;2023-05-21T10:05:12;50483.94;;;-143.47;60.75
35121;BME280;21297;52.008;4.576;2023-05-21T10:08:00;50523.28;;;-143.47;60.14
35121;BME280;21297;52.008;4.576;2023-05-21T10:10:49;50472.13;;;-143.47;59.53
35121;BME280;21297;52.008;4.576;2023-05-21T10:13:38;50542.94;;;-143.47;59.76
35121;BME280;21297;52.008;4.576;2023-05-21T10:16:27;50598.03;;;-143.47;58.81
35121;BME280;21297;52.008;4.576;2023-05-21T10:19:14;50629.50;;;-143.47;59.34
35121;BME280;21297;52.008;4.576;2023-05-21T10:22:00;50582.28;;;-143.47;59.35
35121;BME280;21297;52.008;4.576;2023-05-21T10:24:49;50499.66;;;-143.47;59.38
35121;BME280;21297;52.008;4.576;2023-05-21T10:27:35;50483.94;;;-143.47;59.87
35121;BME280;21297;52.008;4.576;2023-05-21T10:30:22;50519.34;;;-143.47;59.74
35121;BME280;21297;52.008;4.576;2023-05-21T10:33:08;50664.91;;;-143.47;59.40
35121;BME280;21297;52.008;4.576;2023-05-21T10:35:57;50700.34;;;-143.47;57.35
35121;BME280;21297;52.008;4.576;2023-05-21T10:38:43;50704.25;;;-143.47;58.17
35121;BME280;21297;52.008;4.576;2023-05-21T10:41:35;50676.72;;;-143.47;57.08
35121;BME280;21297;52.008;4.576;2023-05-21T10:44:39;50605.91;;;-143.47;58.71
35121;BME280;21297;52.008;4.576;2023-05-21T10:54:33;50731.81;;;-143.47;58.17
35121;BME280;21297;52.008;4.576;2023-05-21T11:00:17;50692.47;;;-143.47;59.26
35121;BME280;21297;52.008;4.576;2023-05-21T11:03:06;50733.78;;;-143.47;58.16
35121;BME280;21297;52.008;4.576;2023-05-21T11:08:46;50798.69;;;-143.47;58.05
35121;BME280;21297;52.008;4.576;2023-05-21T11:14:34;50688.53;;;-143.47;58.16
35121;BME280;21297;52.008;4.576;2023-05-21T11:17:39;50688.53;;;-143.47;58.79
35121;BME280;21297;52.008;4.576;2023-05-21T11:20:32;50841.97;;;-143.47;57.69
35121;BME280;21297;52.008;4.576;2023-05-21T11:23:20;50843.94;;;-143.47;55.64
35121;BME280;21297;52.008;4.576;2023-05-21T11:26:05;50889.19;;;-143.47;55.27
35121;BME280;21297;52.008;4.576;2023-05-21T11:31:59;50891.16;;;-143.47;54.82
35121;BME280;21297;52.008;4.576;2023-05-21T11:34:49;50899.03;;;-143.47;55.70
35121;BME280;21297;52.008;4.576;2023-05-21T11:37:37;50981.66;;;-143.47;54.38
35121;BME280;21297;52.008;4.576;2023-05-21T11:40:25;50962.00;;;-143.47;55.94
35121;BME280;21297;52.008;4.576;2023-05-21T11:43:11;50999.38;;;-143.47;55.23
35121;BME280;21297;52.008;4.576;2023-05-21T11:45:57;50938.38;;;-143.47;55.87
35121;BME280;21297;52.008;4.576;2023-05-21T11:48:43;51034.78;;;-143.47;55.29
35121;BME280;21297;52.008;4.576;2023-05-21T11:51:31;50912.81;;;-143.47;55.91
35121;BME280;21297;52.008;4.576;2023-05-21T11:54:17;50897.06;;;-143.47;56.74
35121;BME280;21297;52.008;4.576;2023-05-21T11:57:07;50904.94;;;-143.47;57.17
35121;BME280;21297;52.008;4.576;2023-05-21T11:59:35;50914.78;;;-143.47;56.58
35121;BME280;21297;52.008;4.576;2023-05-21T12:02:01;51087.91;;;-143.47;55.54
35121;BME280;21297;52.008;4.576;2023-05-21T12:04:34;51003.31;;;-143.47;55.22
35121;BME280;21297;52.008;4.576;2023-05-21T12:07:06;51015.13;;;-143.47;55.19
35121;BME280;21297;52.008;4.576;2023-05-21T12:09:39;50889.19;;;-143.47;56.97
35121;BME280;21297;52.008;4.576;2023-05-21T12:12:05;50987.56;;;-143.47;56.21
35121;BME280;21297;52.008;4.576;2023-05-21T12:14:31;51015.13;;;-143.47;55.40
35121;BME280;21297;52.008;4.576;2023-05-21T12:16:57;50999.38;;;-143.47;55.70
35121;BME280;21297;52.008;4.576;2023-05-21T12:19:22;51032.81;;;-143.47;56.38
35121;BME280;21297;52.008;4.576;2023-05-21T12:21:49;51040.69;;;-143.47;55.64
35121;BME280;21297;52.008;4.576;2023-05-21T12:24:14;51083.97;;;-143.47;55.43
35121;BME280;21297;52.008;4.576;2023-05-21T12:26:40;51125.28;;;-143.47;55.71
35121;BME280;21297;52.008;4.576;2023-05-21T12:29:08;51099.72;;;-143.47;55.09
35121;BME280;21297;52.008;4.576;2023-05-21T12:31:46;51103.66;;;-143.47;54.80
35121;BME280;21297;52.008;4.576;2023-05-21T12:34:12;51152.84;;;-143.47;54.82
35121;BME280;21297;52.008;4.576;2023-05-21T12:36:37;51072.16;;;-143.47;55.14
35121;BME280;21297;52.008;4.576;2023-05-21T12:39:03;51229.56;;;-143.47;54.71
35121;BME280;21297;52.008;4.576;2023-05-21T12:41:28;51298.44;;;-143.47;53.93
35121;BME280;21297;52.008;4.576;2023-05-21T12:43:53;51446.00;;;-143.47;53.72
35121;BME280;21297;52.008;4.576;2023-05-21T12:46:19;51577.84;;;-143.47;53.75
35121;BME280;21297;52.008;4.576;2023-05-21T12:48:54;51310.25;;;-143.47;54.32
35121;BME280;21297;52.008;4.576;2023-05-21T12:51:20;51255.16;;;-143.47;53.79
35121;BME280;21297;52.008;4.576;2023-05-21T12:53:45;51241.38;;;-143.47;53.83
35121;BME280;21297;52.008;4.576;2023-05-21T12:56:11;51219.72;;;-143.47;53.50
35121;BME280;21297;52.008;4.576;2023-05-21T12:58:37;51107.59;;;-143.47;55.21
35121;BME280;21297;52.008;4.576;2023-05-21T13:01:21;51068.22;;;-143.47;55.63
35121;BME280;21297;52.008;4.576;2023-05-21T13:04:07;51030.84;;;-143.47;56.16
35121;BME280;21297;52.008;4.576;2023-05-21T13:06:52;51318.13;;;-143.47;54.90
35121;BME280;21297;52.008;4.576;2023-05-21T13:09:38;51335.81;;;-143.47;54.78
35121;BME280;21297;52.008;4.576;2023-05-21T13:12:25;51133.16;;;-143.47;55.27
35121;BME280;21297;52.008;4.576;2023-05-21T13:15:11;51007.25;;;-143.47;55.77
35121;BME280;21297;52.008;4.576;2023-05-21T13:17:57;51172.50;;;-143.47;55.58
35121;BME280;21297;52.008;4.576;2023-05-21T13:20:43;51131.19;;;-143.47;55.05
35121;BME280;21297;52.008;4.576;2023-05-21T13:23:28;51066.25;;;-143.47;56.23
35121;BME280;21297;52.008;4.576;2023-05-21T13:26:14;51202.03;;;-143.47;55.17
35121;BME280;21297;52.008;4.576;2023-05-21T13:29:00;51188.25;;;-143.47;54.61
35121;BME280;21297;52.008;4.576;2023-05-21T13:31:46;51150.88;;;-143.47;54.74
35121;BME280;21297;52.008;4.576;2023-05-21T13:34:31;51255.16;;;-143.47;55.41
35121;BME280;21297;52.008;4.576;2023-05-21T13:37:17;51083.97;;;-143.47;54.55
35121;BME280;21297;52.008;4.576;2023-05-21T13:40:05;51160.72;;;-143.47;55.27
35121;BME280;21297;52.008;4.576;2023-05-21T13:42:51;51082.00;;;-143.47;54.65
35121;BME280;21297;52.008;4.576;2023-05-21T13:45:37;51109.56;;;-143.47;54.72
35121;BME280;21297;52.008;4.576;2023-05-21T13:48:23;51028.88;;;-143.47;55.70
35121;BME280;21297;52.008;4.576;2023-05-21T13:51:08;51223.66;;;-143.47;54.39
35121;BME280;21297;52.008;4.576;2023-05-21T13:53:54;51298.44;;;-143.47;55.43
35121;BME280;21297;52.008;4.576;2023-05-21T13:56:40;51396.81;;;-143.47;53.60
35121;BME280;21297;52.008;4.576;2023-05-21T13:59:25;51324.00;;;-143.47;52.81
35121;BME280;21297;52.008;4.576;2023-05-21T14:02:11;51353.53;;;-143.47;53.82
35121;BME280;21297;52.008;4.576;2023-05-21T14:04:57;51388.94;;;-143.47;53.39
35121;BME280;21297;52.008;4.576;2023-05-21T14:07:51;51302.38;;;-143.47;53.59
35121;BME280;21297;52.008;4.576;2023-05-21T14:10:36;51247.28;;;-143.47;54.14
35121;BME280;21297;52.008;4.576;2023-05-21T14:13:02;51243.34;;;-143.47;54.12
35121;BME280;21297;52.008;4.576;2023-05-21T14:15:27;51318.13;;;-143.47;54.28
35121;BME280;21297;52.008;4.576;2023-05-21T14:17:52;51440.09;;;-143.47;53.04
35121;BME280;21297;52.008;4.576;2023-05-21T14:20:18;51566.03;;;-143.47;52.38
35121;BME280;21297;52.008;4.576;2023-05-21T14:22:43;51467.66;;;-143.47;52.88
35121;BME280;21297;52.008;4.576;2023-05-21T14:25:09;51418.47;;;-143.47;52.46
35121;BME280;21297;52.008;4.576;2023-05-21T14:27:34;51485.38;;;-143.47;52.50